sensor_id;sensor_type;location;lat;lon;timestamp;temperature;humidity
16838;DHT22;19510;54.486;9.046;2023-09-07T00:00:50;20.00;99.90
16838;DHT22;19510;54.486;9.046;2023-09-07T00:03:16;20.00;99.90
16838;DHT22;19510;54.486;9.046;2023-09-07T00:05:42;20.00;99.90
16838;DHT22;19510;54.486;9.046;2023-09-07T00:08:07;20.00;99.90
16838;DHT22;19510;54.486;9.046;2023-09-07T00:10:33;20.00;99.90
16838;DHT22;19510;54.486;9.046;2023-09-07T00:13:04;20.00;99.90
16838;DHT22;19510;54.486;9.046;2023-09-07T00:15:36;20.00;99.90
16838;DHT22;19510;54.486;9.046;2023-09-07T00:18:01;19.90;99.90
16838;DHT22;19510;54.486;9.046;2023-09-07T00:20:27;19.80;99.90
16838;DHT22;19510;54.486;9.046;2023-09-07T00:22:53;19.90;99.90
16838;DHT22;19510;54.486;9.046;2023-09-07T00:25:18;19.90;99.90
16838;DHT22;19510;54.486;9.046;2023-09-07T00:27:46;19.90;99.90
16838;DHT22;19510;54.486;9.046;2023-09-07T00:30:15;19.80;99.90
16838;DHT22;19510;54.486;9.046;2023-09-07T00:32:41;19.80;99.90
16838;DHT22;19510;54.486;9.046;2023-09-07T00:35:08;19.80;99.90
16838;DHT22;19510;54.486;9.046;2023-09-07T00:37:34;19.80;99.90
16838;DHT22;19510;54.486;9.046;2023-09-07T00:40:00;19.80;99.90
16838;DHT22;19510;54.486;9.046;2023-09-07T00:42:28;19.80;99.90
16838;DHT22;19510;54.486;9.046;2023-09-07T00:44:54;19.70;99.90
16838;DHT22;19510;54.486;9.046;2023-09-07T00:47:20;19.70;99.90
16838;DHT22;19510;54.486;9.046;2023-09-07T00:49:46;19.70;99.90
16838;DHT22;19510;54.486;9.046;2023-09-07T00:52:12;19.70;99.90
16838;DHT22;19510;54.486;9.046;2023-09-07T00:54:38;19.70;99.90
16838;DHT22;19510;54.486;9.046;2023-09-07T00:57:05;19.70;99.90
16838;DHT22;19510;54.486;9.046;2023-09-07T00:59:36;19.70;99.90
16838;DHT22;19510;54.486;9.046;2023-09-07T01:02:04;19.70;99.90
16838;DHT22;19510;54.486;9.046;2023-09-07T01:04:31;19.60;99.90
16838;DHT22;19510;54.486;9.046;2023-09-07T01:07:02;19.60;99.90
16838;DHT22;19510;54.486;9.046;2023-09-07T01:09:31;19.60;99.90
16838;DHT22;19510;54.486;9.046;2023-09-07T01:11:57;19.50;99.90
16838;DHT22;19510;54.486;9.046;2023-09-07T01:14:25;19.50;99.90
16838;DHT22;19510;54.486;9.046;2023-09-07T01:16:53;19.50;99.90
16838;DHT22;19510;54.486;9.046;2023-09-07T01:19:19;19.50;99.90
16838;DHT22;19510;54.486;9.046;2023-09-07T01:21:48;19.50;99.90
16838;DHT22;19510;54.486;9.046;2023-09-07T01:24:14;19.40;99.90
16838;DHT22;19510;54.486;9.046;2023-09-07T01:26:40;19.40;99.90
16838;DHT22;19510;54.486;9.046;2023-09-07T01:29:08;19.40;99.90
16838;DHT22;19510;54.486;9.046;2023-09-07T01:31:37;19.40;99.90
16838;DHT22;19510;54.486;9.046;2023-09-07T01:34:04;19.40;99.90
16838;DHT22;19510;54.486;9.046;2023-09-07T01:36:32;19.40;99.90
16838;DHT22;19510;54.486;9.046;2023-09-07T01:38:58;19.30;99.90
16838;DHT22;19510;54.486;9.046;2023-09-07T01:41:23;19.30;99.90
16838;DHT22;19510;54.486;9.046;2023-09-07T01:43:51;19.30;99.90
16838;DHT22;19510;54.486;9.046;2023-09-07T01:46:19;19.30;99.90
16838;DHT22;19510;54.486;9.046;2023-09-07T01:48:45;19.30;99.90
16838;DHT22;19510;54.486;9.046;2023-09-07T01:51:15;19.30;99.90
16838;DHT22;19510;54.486;9.046;2023-09-07T01:53:41;19.30;99.90
16838;DHT22;19510;54.486;9.046;2023-09-07T01:56:07;19.30;99.90
16838;DHT22;19510;54.486;9.046;2023-09-07T01:58:33;19.30;99.90
16838;DHT22;19510;54.486;9.046;2023-09-07T02:00:59;19.30;99.90
16838;DHT22;19510;54.486;9.046;2023-09-07T02:03:25;19.30;99.90
16838;DHT22;19510;54.486;9.046;2023-09-07T02:05:54;19.30;99.90
16838;DHT22;19510;54.486;9.046;2023-09-07T02:08:22;19.30;99.90
16838;DHT22;19510;54.486;9.046;2023-09-07T02:10:48;19.30;99.90
16838;DHT22;19510;54.486;9.046;2023-09-07T02:13:14;19.30;99.90
16838;DHT22;19510;54.486;9.046;2023-09-07T02:15:40;19.30;99.90
16838;DHT22;19510;54.486;9.046;2023-09-07T02:18:06;19.30;99.90
16838;DHT22;19510;54.486;9.046;2023-09-07T02:20:32;19.30;99.90
16838;DHT22;19510;54.486;9.046;2023-09-07T02:23:00;19.20;99.90
16838;DHT22;19510;54.486;9.046;2023-09-07T02:25:26;19.20;99.90
16838;DHT22;19510;54.486;9.046;2023-09-07T02:27:53;19.20;99.90
16838;DHT22;19510;54.486;9.046;2023-09-07T02:30:18;19.20;99.90
16838;DHT22;19510;54.486;9.046;2023-09-07T02:32:46;19.20;99.90
16838;DHT22;19510;54.486;9.046;2023-09-07T02:35:12;19.20;99.90
16838;DHT22;19510;54.486;9.046;2023-09-07T02:37:38;19.20;99.90
16838;DHT22;19510;54.486;9.046;2023-09-07T02:40:04;19.20;99.90
16838;DHT22;19510;54.486;9.046;2023-09-07T02:42:33;19.10;99.90
16838;DHT22;19510;54.486;9.046;2023-09-07T02:44:59;19.10;99.90
16838;DHT22;19510;54.486;9.046;2023-09-07T02:47:26;19.00;99.90
16838;DHT22;19510;54.486;9.046;2023-09-07T02:49:55;19.00;99.90
16838;DHT22;19510;54.486;9.046;2023-09-07T02:52:20;19.00;99.90
16838;DHT22;19510;54.486;9.046;2023-09-07T02:54:48;18.90;99.90
16838;DHT22;19510;54.486;9.046;2023-09-07T02:57:16;18.90;99.90
16838;DHT22;19510;54.486;9.046;2023-09-07T02:59:42;18.90;99.90
16838;DHT22;19510;54.486;9.046;2023-09-07T03:02:07;18.90;99.90
16838;DHT22;19510;54.486;9.046;2023-09-07T03:04:35;18.80;99.90
16838;DHT22;19510;54.486;9.046;2023-09-07T03:07:01;18.80;99.90
16838;DHT22;19510;54.486;9.046;2023-09-07T03:09:27;18.80;99.90
16838;DHT22;19510;54.486;9.046;2023-09-07T03:11:53;18.80;99.90
16838;DHT22;19510;54.486;9.046;2023-09-07T03:14:18;18.80;99.90
16838;DHT22;19510;54.486;9.046;2023-09-07T03:16:44;18.80;99.90
16838;DHT22;19510;54.486;9.046;2023-09-07T03:19:15;18.80;99.90
16838;DHT22;19510;54.486;9.046;2023-09-07T03:21:44;18.80;99.90
16838;DHT22;19510;54.486;9.046;2023-09-07T03:24:09;18.70;99.90
16838;DHT22;19510;54.486;9.046;2023-09-07T03:26:35;18.80;99.90
16838;DHT22;19510;54.486;9.046;2023-09-07T03:29:01;18.80;99.90
16838;DHT22;19510;54.486;9.046;2023-09-07T03:31:26;18.80;99.90
16838;DHT22;19510;54.486;9.046;2023-09-07T03:33:52;18.80;99.90
16838;DHT22;19510;54.486;9.046;2023-09-07T03:36:18;18.80;99.90
16838;DHT22;19510;54.486;9.046;2023-09-07T03:38:43;18.80;99.90
16838;DHT22;19510;54.486;9.046;2023-09-07T03:41:09;18.70;99.90
16838;DHT22;19510;54.486;9.046;2023-09-07T03:43:35;18.60;99.90
16838;DHT22;19510;54.486;9.046;2023-09-07T03:46:00;18.60;99.90
16838;DHT22;19510;54.486;9.046;2023-09-07T03:48:28;18.60;99.90
16838;DHT22;19510;54.486;9.046;2023-09-07T03:50:54;18.60;99.90
16838;DHT22;19510;54.486;9.046;2023-09-07T03:53:20;18.60;99.90
16838;DHT22;19510;54.486;9.046;2023-09-07T03:55:45;18.60;99.90
16838;DHT22;19510;54.486;9.046;2023-09-07T03:58:11;18.60;99.90
16838;DHT22;19510;54.486;9.046;2023-09-07T04:00:40;18.60;99.90
16838;DHT22;19510;54.486;9.046;2023-09-07T04:03:07;18.50;99.90
16838;DHT22;19510;54.486;9.046;2023-09-07T04:05:33;18.50;99.90
16838;DHT22;19510;54.486;9.046;2023-09-07T04:08:01;18.50;99.90
16838;DHT22;19510;54.486;9.046;2023-09-07T04:10:30;18.50;99.90
16838;DHT22;19510;54.486;9.046;2023-09-07T04:12:56;18.50;99.90
16838;DHT22;19510;54.486;9.046;2023-09-07T04:15:22;18.50;99.90
16838;DHT22;19510;54.486;9.046;2023-09-07T04:17:49;18.40;99.90
16838;DHT22;19510;54.486;9.046;2023-09-07T04:20:15;18.40;99.90
16838;DHT22;19510;54.486;9.046;2023-09-07T04:22:41;18.40;99.90
16838;DHT22;19510;54.486;9.046;2023-09-07T04:25:06;18.30;99.90
16838;DHT22;19510;54.486;9.046;2023-09-07T04:27:32;18.30;99.90
16838;DHT22;19510;54.486;9.046;2023-09-07T04:30:03;18.30;99.90
16838;DHT22;19510;54.486;9.046;2023-09-07T04:32:28;18.30;99.90
16838;DHT22;19510;54.486;9.046;2023-09-07T04:34:56;18.40;99.90
16838;DHT22;19510;54.486;9.046;2023-09-07T04:37:26;18.40;99.90
16838;DHT22;19510;54.486;9.046;2023-09-07T04:39:53;18.40;99.90
16838;DHT22;19510;54.486;9.046;2023-09-07T04:42:19;18.30;99.90
16838;DHT22;19510;54.486;9.046;2023-09-07T04:44:46;18.30;99.90
16838;DHT22;19510;54.486;9.046;2023-09-07T04:47:12;18.30;99.90
16838;DHT22;19510;54.486;9.046;2023-09-07T04:49:40;18.30;99.90
16838;DHT22;19510;54.486;9.046;2023-09-07T04:52:08;18.20;99.90
16838;DHT22;19510;54.486;9.046;2023-09-07T04:54:35;18.20;99.90
16838;DHT22;19510;54.486;9.046;2023-09-07T04:57:00;18.30;99.90
16838;DHT22;19510;54.486;9.046;2023-09-07T04:59:28;18.30;99.90
16838;DHT22;19510;54.486;9.046;2023-09-07T05:01:54;18.30;99.90
16838;DHT22;19510;54.486;9.046;2023-09-07T05:04:22;18.20;99.90
16838;DHT22;19510;54.486;9.046;2023-09-07T05:06:48;18.30;99.90
16838;DHT22;19510;54.486;9.046;2023-09-07T05:09:13;18.30;99.90
16838;DHT22;19510;54.486;9.046;2023-09-07T05:11:41;18.30;99.90
16838;DHT22;19510;54.486;9.046;2023-09-07T05:14:07;18.30;99.90
16838;DHT22;19510;54.486;9.046;2023-09-07T05:16:33;18.30;99.90
16838;DHT22;19510;54.486;9.046;2023-09-07T05:19:03;18.20;99.90
16838;DHT22;19510;54.486;9.046;2023-09-07T05:21:29;18.20;99.90
16838;DHT22;19510;54.486;9.046;2023-09-07T05:23:55;18.20;99.90
16838;DHT22;19510;54.486;9.046;2023-09-07T05:26:24;18.20;99.90
16838;DHT22;19510;54.486;9.046;2023-09-07T05:28:50;18.20;99.90
16838;DHT22;19510;54.486;9.046;2023-09-07T05:31:16;18.30;99.90
16838;DHT22;19510;54.486;9.046;2023-09-07T05:33:41;18.30;99.90
16838;DHT22;19510;54.486;9.046;2023-09-07T05:36:07;18.30;99.90
16838;DHT22;19510;54.486;9.046;2023-09-07T05:38:33;18.30;99.90
16838;DHT22;19510;54.486;9.046;2023-09-07T05:40:58;18.30;99.90
16838;DHT22;19510;54.486;9.046;2023-09-07T05:43:24;18.30;99.90
16838;DHT22;19510;54.486;9.046;2023-09-07T05:45:50;18.40;99.90
16838;DHT22;19510;54.486;9.046;2023-09-07T05:48:15;18.30;99.90
16838;DHT22;19510;54.486;9.046;2023-09-07T05:50:45;18.40;99.90
16838;DHT22;19510;54.486;9.046;2023-09-07T05:53:11;18.40;99.90
16838;DHT22;19510;54.486;9.046;2023-09-07T05:55:39;18.40;99.90
16838;DHT22;19510;54.486;9.046;2023-09-07T05:58:06;18.40;99.90
16838;DHT22;19510;54.486;9.046;2023-09-07T06:00:32;18.50;99.90
16838;DHT22;19510;54.486;9.046;2023-09-07T06:02:59;18.50;99.90
16838;DHT22;19510;54.486;9.046;2023-09-07T06:05:24;18.50;99.90
16838;DHT22;19510;54.486;9.046;2023-09-07T06:07:50;18.50;99.90
16838;DHT22;19510;54.486;9.046;2023-09-07T06:10:16;18.50;99.90
16838;DHT22;19510;54.486;9.046;2023-09-07T06:12:45;18.60;99.90
16838;DHT22;19510;54.486;9.046;2023-09-07T06:15:10;18.60;99.90
16838;DHT22;19510;54.486;9.046;2023-09-07T06:17:36;18.60;99.90
16838;DHT22;19510;54.486;9.046;2023-09-07T06:20:02;18.60;99.90
16838;DHT22;19510;54.486;9.046;2023-09-07T06:22:31;18.60;99.90
16838;DHT22;19510;54.486;9.046;2023-09-07T06:24:57;18.70;99.90
16838;DHT22;19510;54.486;9.046;2023-09-07T06:27:22;18.70;99.90
16838;DHT22;19510;54.486;9.046;2023-09-07T06:29:49;18.80;99.90
16838;DHT22;19510;54.486;9.046;2023-09-07T06:32:14;18.80;99.90
16838;DHT22;19510;54.486;9.046;2023-09-07T06:34:40;18.90;99.90
16838;DHT22;19510;54.486;9.046;2023-09-07T06:37:06;18.90;99.90
16838;DHT22;19510;54.486;9.046;2023-09-07T06:39:34;18.90;99.90
16838;DHT22;19510;54.486;9.046;2023-09-07T06:42:00;18.90;99.90
16838;DHT22;19510;54.486;9.046;2023-09-07T06:44:26;19.00;99.90
16838;DHT22;19510;54.486;9.046;2023-09-07T06:46:51;19.00;99.90
16838;DHT22;19510;54.486;9.046;2023-09-07T06:49:19;19.10;99.90
16838;DHT22;19510;54.486;9.046;2023-09-07T06:51:50;19.10;99.90
16838;DHT22;19510;54.486;9.046;2023-09-07T06:54:15;19.10;99.90
16838;DHT22;19510;54.486;9.046;2023-09-07T06:56:41;19.20;99.90
16838;DHT22;19510;54.486;9.046;2023-09-07T06:59:07;19.20;99.90
16838;DHT22;19510;54.486;9.046;2023-09-07T07:01:33;19.30;99.90
16838;DHT22;19510;54.486;9.046;2023-09-07T07:03:58;19.30;99.90
16838;DHT22;19510;54.486;9.046;2023-09-07T07:06:25;19.40;99.90
16838;DHT22;19510;54.486;9.046;2023-09-07T07:08:51;19.40;99.90
16838;DHT22;19510;54.486;9.046;2023-09-07T07:11:17;19.50;99.90
16838;DHT22;19510;54.486;9.046;2023-09-07T07:13:43;19.50;99.90
16838;DHT22;19510;54.486;9.046;2023-09-07T07:16:08;19.60;99.90
16838;DHT22;19510;54.486;9.046;2023-09-07T07:18:34;19.70;99.90
16838;DHT22;19510;54.486;9.046;2023-09-07T07:21:00;19.70;99.90
16838;DHT22;19510;54.486;9.046;2023-09-07T07:23:28;19.80;99.90
16838;DHT22;19510;54.486;9.046;2023-09-07T07:25:53;19.90;99.90
16838;DHT22;19510;54.486;9.046;2023-09-07T07:28:19;20.00;99.90
16838;DHT22;19510;54.486;9.046;2023-09-07T07:30:47;20.00;99.90
16838;DHT22;19510;54.486;9.046;2023-09-07T07:33:13;20.10;99.90
16838;DHT22;19510;54.486;9.046;2023-09-07T07:35:39;20.10;99.90
16838;DHT22;19510;54.486;9.046;2023-09-07T07:38:05;20.20;99.90
16838;DHT22;19510;54.486;9.046;2023-09-07T07:40:33;20.30;99.90
16838;DHT22;19510;54.486;9.046;2023-09-07T07:42:59;20.30;99.90
16838;DHT22;19510;54.486;9.046;2023-09-07T07:45:28;20.40;99.90
16838;DHT22;19510;54.486;9.046;2023-09-07T07:47:54;20.50;99.90
16838;DHT22;19510;54.486;9.046;2023-09-07T07:50:24;20.50;99.90
16838;DHT22;19510;54.486;9.046;2023-09-07T07:52:50;20.60;99.90
16838;DHT22;19510;54.486;9.046;2023-09-07T07:55:15;20.60;99.90
16838;DHT22;19510;54.486;9.046;2023-09-07T07:57:41;20.70;99.90
16838;DHT22;19510;54.486;9.046;2023-09-07T08:00:07;20.80;99.90
16838;DHT22;19510;54.486;9.046;2023-09-07T08:02:33;20.80;99.90
16838;DHT22;19510;54.486;9.046;2023-09-07T08:04:58;20.90;99.90
16838;DHT22;19510;54.486;9.046;2023-09-07T08:07:29;21.00;99.90
16838;DHT22;19510;54.486;9.046;2023-09-07T08:09:55;21.10;99.90
16838;DHT22;19510;54.486;9.046;2023-09-07T08:12:20;21.10;99.90
16838;DHT22;19510;54.486;9.046;2023-09-07T08:14:46;21.20;99.90
16838;DHT22;19510;54.486;9.046;2023-09-07T08:17:12;21.30;99.90
16838;DHT22;19510;54.486;9.046;2023-09-07T08:19:38;21.30;99.90
16838;DHT22;19510;54.486;9.046;2023-09-07T08:22:04;21.40;99.90
16838;DHT22;19510;54.486;9.046;2023-09-07T08:24:31;21.50;99.90
16838;DHT22;19510;54.486;9.046;2023-09-07T08:26:59;21.50;99.90
16838;DHT22;19510;54.486;9.046;2023-09-07T08:29:25;21.60;99.90
16838;DHT22;19510;54.486;9.046;2023-09-07T08:31:53;21.70;99.90
16838;DHT22;19510;54.486;9.046;2023-09-07T08:34:19;21.80;99.90
16838;DHT22;19510;54.486;9.046;2023-09-07T08:36:51;21.80;99.90
16838;DHT22;19510;54.486;9.046;2023-09-07T08:39:29;21.90;99.90
16838;DHT22;19510;54.486;9.046;2023-09-07T08:41:56;22.00;99.90
16838;DHT22;19510;54.486;9.046;2023-09-07T08:44:24;22.10;99.90
16838;DHT22;19510;54.486;9.046;2023-09-07T08:46:52;22.10;99.90
16838;DHT22;19510;54.486;9.046;2023-09-07T08:49:18;22.20;99.90
16838;DHT22;19510;54.486;9.046;2023-09-07T08:51:49;22.20;99.90
16838;DHT22;19510;54.486;9.046;2023-09-07T08:54:17;22.30;99.90
16838;DHT22;19510;54.486;9.046;2023-09-07T08:56:45;22.30;99.90
16838;DHT22;19510;54.486;9.046;2023-09-07T08:59:14;22.40;99.90
16838;DHT22;19510;54.486;9.046;2023-09-07T09:01:40;22.40;99.90
16838;DHT22;19510;54.486;9.046;2023-09-07T09:04:06;22.40;99.90
16838;DHT22;19510;54.486;9.046;2023-09-07T09:06:35;22.50;99.90
16838;DHT22;19510;54.486;9.046;2023-09-07T09:09:05;22.50;99.90
16838;DHT22;19510;54.486;9.046;2023-09-07T09:11:32;22.60;99.90
16838;DHT22;19510;54.486;9.046;2023-09-07T09:13:59;22.70;99.90
16838;DHT22;19510;54.486;9.046;2023-09-07T09:16:25;22.80;99.90
16838;DHT22;19510;54.486;9.046;2023-09-07T09:18:56;22.90;99.90
16838;DHT22;19510;54.486;9.046;2023-09-07T09:21:24;23.00;99.90
16838;DHT22;19510;54.486;9.046;2023-09-07T09:23:54;23.10;99.90
16838;DHT22;19510;54.486;9.046;2023-09-07T09:26:23;23.10;99.90
16838;DHT22;19510;54.486;9.046;2023-09-07T09:28:51;23.20;99.90
16838;DHT22;19510;54.486;9.046;2023-09-07T09:31:18;23.20;99.90
16838;DHT22;19510;54.486;9.046;2023-09-07T09:33:48;23.30;99.90
16838;DHT22;19510;54.486;9.046;2023-09-07T09:36:20;23.30;99.90
16838;DHT22;19510;54.486;9.046;2023-09-07T09:38:51;23.40;99.90
16838;DHT22;19510;54.486;9.046;2023-09-07T09:41:20;23.50;99.90
16838;DHT22;19510;54.486;9.046;2023-09-07T09:43:48;23.50;99.90
16838;DHT22;19510;54.486;9.046;2023-09-07T09:46:22;23.60;99.90
16838;DHT22;19510;54.486;9.046;2023-09-07T09:48:51;23.60;99.90
16838;DHT22;19510;54.486;9.046;2023-09-07T09:51:18;23.70;99.90
16838;DHT22;19510;54.486;9.046;2023-09-07T09:53:44;23.80;99.90
16838;DHT22;19510;54.486;9.046;2023-09-07T09:56:10;23.90;99.90
16838;DHT22;19510;54.486;9.046;2023-09-07T09:58:39;24.00;99.90
16838;DHT22;19510;54.486;9.046;2023-09-07T10:01:08;24.10;99.90
16838;DHT22;19510;54.486;9.046;2023-09-07T10:03:38;24.20;99.90
16838;DHT22;19510;54.486;9.046;2023-09-07T10:06:26;24.20;99.90
16838;DHT22;19510;54.486;9.046;2023-09-07T10:09:04;24.20;99.90
16838;DHT22;19510;54.486;9.046;2023-09-07T10:11:39;24.40;99.90
16838;DHT22;19510;54.486;9.046;2023-09-07T10:14:06;24.50;99.90
16838;DHT22;19510;54.486;9.046;2023-09-07T10:16:46;24.60;99.90
16838;DHT22;19510;54.486;9.046;2023-09-07T10:19:22;24.70;99.90
16838;DHT22;19510;54.486;9.046;2023-09-07T10:21:48;24.80;99.90
16838;DHT22;19510;54.486;9.046;2023-09-07T10:24:33;24.90;99.90
16838;DHT22;19510;54.486;9.046;2023-09-07T10:27:08;25.00;99.90
16838;DHT22;19510;54.486;9.046;2023-09-07T10:29:44;25.10;99.90
16838;DHT22;19510;54.486;9.046;2023-09-07T10:32:13;25.10;99.90
16838;DHT22;19510;54.486;9.046;2023-09-07T10:34:40;25.20;99.90
16838;DHT22;19510;54.486;9.046;2023-09-07T10:37:14;25.30;99.90
16838;DHT22;19510;54.486;9.046;2023-09-07T10:39:44;25.40;99.90
16838;DHT22;19510;54.486;9.046;2023-09-07T10:42:26;25.40;99.90
16838;DHT22;19510;54.486;9.046;2023-09-07T10:44:52;25.60;99.90
16838;DHT22;19510;54.486;9.046;2023-09-07T10:47:20;25.60;99.90
16838;DHT22;19510;54.486;9.046;2023-09-07T10:49:47;25.70;99.90
16838;DHT22;19510;54.486;9.046;2023-09-07T10:52:13;25.80;99.90
16838;DHT22;19510;54.486;9.046;2023-09-07T10:54:38;25.90;99.90
16838;DHT22;19510;54.486;9.046;2023-09-07T10:57:08;26.00;99.90
16838;DHT22;19510;54.486;9.046;2023-09-07T10:59:34;26.00;99.90
16838;DHT22;19510;54.486;9.046;2023-09-07T11:02:04;26.10;99.90
16838;DHT22;19510;54.486;9.046;2023-09-07T11:04:30;26.20;99.90
16838;DHT22;19510;54.486;9.046;2023-09-07T11:06:56;26.30;99.90
16838;DHT22;19510;54.486;9.046;2023-09-07T11:09:23;26.50;99.90
16838;DHT22;19510;54.486;9.046;2023-09-07T11:11:50;26.60;99.90
16838;DHT22;19510;54.486;9.046;2023-09-07T11:14:16;26.60;99.90
16838;DHT22;19510;54.486;9.046;2023-09-07T11:16:42;26.60;99.90
16838;DHT22;19510;54.486;9.046;2023-09-07T11:19:08;26.60;99.90
16838;DHT22;19510;54.486;9.046;2023-09-07T11:21:35;26.80;99.90
16838;DHT22;19510;54.486;9.046;2023-09-07T11:24:01;26.90;99.90
16838;DHT22;19510;54.486;9.046;2023-09-07T11:26:40;27.00;99.90
16838;DHT22;19510;54.486;9.046;2023-09-07T11:29:09;27.10;99.90
16838;DHT22;19510;54.486;9.046;2023-09-07T11:31:34;27.10;99.90
16838;DHT22;19510;54.486;9.046;2023-09-07T11:34:00;27.10;99.90
16838;DHT22;19510;54.486;9.046;2023-09-07T11:36:26;27.30;99.90
16838;DHT22;19510;54.486;9.046;2023-09-07T11:38:53;27.30;99.90
16838;DHT22;19510;54.486;9.046;2023-09-07T11:41:19;27.40;99.90
16838;DHT22;19510;54.486;9.046;2023-09-07T11:43:45;27.60;99.90
16838;DHT22;19510;54.486;9.046;2023-09-07T11:46:11;27.80;99.90
16838;DHT22;19510;54.486;9.046;2023-09-07T11:48:38;27.90;99.90
16838;DHT22;19510;54.486;9.046;2023-09-07T11:51:04;28.00;99.90
16838;DHT22;19510;54.486;9.046;2023-09-07T11:53:33;28.00;99.90
16838;DHT22;19510;54.486;9.046;2023-09-07T11:55:59;28.20;99.90
16838;DHT22;19510;54.486;9.046;2023-09-07T11:58:24;28.30;99.90
16838;DHT22;19510;54.486;9.046;2023-09-07T12:00:52;28.40;99.90
16838;DHT22;19510;54.486;9.046;2023-09-07T12:03:17;28.40;99.90
16838;DHT22;19510;54.486;9.046;2023-09-07T12:05:43;28.40;99.90
16838;DHT22;19510;54.486;9.046;2023-09-07T12:08:11;28.50;99.90
16838;DHT22;19510;54.486;9.046;2023-09-07T12:10:37;28.60;99.90
16838;DHT22;19510;54.486;9.046;2023-09-07T12:13:07;28.70;99.90
16838;DHT22;19510;54.486;9.046;2023-09-07T12:15:33;28.80;99.90
16838;DHT22;19510;54.486;9.046;2023-09-07T12:18:01;28.80;99.90
16838;DHT22;19510;54.486;9.046;2023-09-07T12:20:27;28.80;99.90
16838;DHT22;19510;54.486;9.046;2023-09-07T12:22:54;28.80;99.90
16838;DHT22;19510;54.486;9.046;2023-09-07T12:25:21;28.80;99.90
16838;DHT22;19510;54.486;9.046;2023-09-07T12:27:50;28.90;99.90
16838;DHT22;19510;54.486;9.046;2023-09-07T12:30:15;29.00;99.90
16838;DHT22;19510;54.486;9.046;2023-09-07T12:32:44;29.00;99.90
16838;DHT22;19510;54.486;9.046;2023-09-07T12:35:09;29.00;99.90
16838;DHT22;19510;54.486;9.046;2023-09-07T12:37:35;29.00;99.90
16838;DHT22;19510;54.486;9.046;2023-09-07T12:40:03;28.90;99.90
16838;DHT22;19510;54.486;9.046;2023-09-07T12:42:38;29.00;99.90
16838;DHT22;19510;54.486;9.046;2023-09-07T12:45:06;29.00;99.90
16838;DHT22;19510;54.486;9.046;2023-09-07T12:47:34;28.80;99.90
16838;DHT22;19510;54.486;9.046;2023-09-07T12:50:00;28.80;99.90
16838;DHT22;19510;54.486;9.046;2023-09-07T12:52:28;28.80;99.90
16838;DHT22;19510;54.486;9.046;2023-09-07T12:54:54;28.80;99.90
16838;DHT22;19510;54.486;9.046;2023-09-07T12:57:22;28.80;99.90
16838;DHT22;19510;54.486;9.046;2023-09-07T12:59:48;28.70;99.90
16838;DHT22;19510;54.486;9.046;2023-09-07T13:02:14;28.80;99.90
16838;DHT22;19510;54.486;9.046;2023-09-07T13:04:40;28.90;99.90
16838;DHT22;19510;54.486;9.046;2023-09-07T13:07:06;29.00;99.90
16838;DHT22;19510;54.486;9.046;2023-09-07T13:09:31;29.00;99.90
16838;DHT22;19510;54.486;9.046;2023-09-07T13:11:57;29.10;99.90
16838;DHT22;19510;54.486;9.046;2023-09-07T13:14:25;29.20;99.90
16838;DHT22;19510;54.486;9.046;2023-09-07T13:16:51;29.30;99.90
16838;DHT22;19510;54.486;9.046;2023-09-07T13:19:17;29.30;99.90
16838;DHT22;19510;54.486;9.046;2023-09-07T13:21:45;29.40;99.90
16838;DHT22;19510;54.486;9.046;2023-09-07T13:24:10;29.50;99.90
16838;DHT22;19510;54.486;9.046;2023-09-07T13:26:37;29.50;99.90
16838;DHT22;19510;54.486;9.046;2023-09-07T13:29:02;29.50;99.90
16838;DHT22;19510;54.486;9.046;2023-09-07T13:31:31;29.40;99.90
16838;DHT22;19510;54.486;9.046;2023-09-07T13:33:56;29.40;99.90
16838;DHT22;19510;54.486;9.046;2023-09-07T13:36:22;29.40;99.90
16838;DHT22;19510;54.486;9.046;2023-09-07T13:38:48;29.50;99.90
16838;DHT22;19510;54.486;9.046;2023-09-07T13:41:13;29.60;99.90
16838;DHT22;19510;54.486;9.046;2023-09-07T13:43:42;29.60;99.90
16838;DHT22;19510;54.486;9.046;2023-09-07T13:46:10;29.50;99.90
16838;DHT22;19510;54.486;9.046;2023-09-07T13:48:38;29.40;99.90
16838;DHT22;19510;54.486;9.046;2023-09-07T13:51:04;29.40;99.90
16838;DHT22;19510;54.486;9.046;2023-09-07T13:53:29;29.30;99.90
16838;DHT22;19510;54.486;9.046;2023-09-07T13:55:55;29.40;99.90
16838;DHT22;19510;54.486;9.046;2023-09-07T13:58:21;29.50;99.90
16838;DHT22;19510;54.486;9.046;2023-09-07T14:00:46;29.40;99.90
16838;DHT22;19510;54.486;9.046;2023-09-07T14:03:12;29.40;99.90
16838;DHT22;19510;54.486;9.046;2023-09-07T14:05:38;29.30;99.90
16838;DHT22;19510;54.486;9.046;2023-09-07T14:08:04;29.30;99.90
16838;DHT22;19510;54.486;9.046;2023-09-07T14:10:29;29.10;99.90
16838;DHT22;19510;54.486;9.046;2023-09-07T14:12:55;29.00;99.90
16838;DHT22;19510;54.486;9.046;2023-09-07T14:15:21;29.00;99.90
16838;DHT22;19510;54.486;9.046;2023-09-07T14:17:46;28.80;99.90
16838;DHT22;19510;54.486;9.046;2023-09-07T14:20:14;28.80;99.90
16838;DHT22;19510;54.486;9.046;2023-09-07T14:22:40;28.80;99.90
16838;DHT22;19510;54.486;9.046;2023-09-07T14:25:06;28.80;99.90
16838;DHT22;19510;54.486;9.046;2023-09-07T14:27:33;28.70;99.90
16838;DHT22;19510;54.486;9.046;2023-09-07T14:29:58;28.60;99.90
16838;DHT22;19510;54.486;9.046;2023-09-07T14:32:24;28.50;99.90
16838;DHT22;19510;54.486;9.046;2023-09-07T14:34:49;28.30;99.90
16838;DHT22;19510;54.486;9.046;2023-09-07T14:37:15;28.10;99.90
16838;DHT22;19510;54.486;9.046;2023-09-07T14:39:41;27.90;99.90
16838;DHT22;19510;54.486;9.046;2023-09-07T14:42:12;27.70;99.90
16838;DHT22;19510;54.486;9.046;2023-09-07T14:44:42;27.60;99.90
16838;DHT22;19510;54.486;9.046;2023-09-07T14:47:07;27.40;99.90
16838;DHT22;19510;54.486;9.046;2023-09-07T14:49:33;27.30;99.90
16838;DHT22;19510;54.486;9.046;2023-09-07T14:52:01;27.20;99.90
16838;DHT22;19510;54.486;9.046;2023-09-07T14:54:33;27.10;99.90
16838;DHT22;19510;54.486;9.046;2023-09-07T14:56:59;27.10;99.90
16838;DHT22;19510;54.486;9.046;2023-09-07T14:59:28;27.10;99.90
16838;DHT22;19510;54.486;9.046;2023-09-07T15:01:56;27.30;99.90
16838;DHT22;19510;54.486;9.046;2023-09-07T15:04:22;27.40;99.90
16838;DHT22;19510;54.486;9.046;2023-09-07T15:06:52;27.60;99.90
16838;DHT22;19510;54.486;9.046;2023-09-07T15:09:18;27.70;99.90
16838;DHT22;19510;54.486;9.046;2023-09-07T15:11:43;27.90;99.90
16838;DHT22;19510;54.486;9.046;2023-09-07T15:14:11;28.10;99.90
16838;DHT22;19510;54.486;9.046;2023-09-07T15:16:37;28.30;99.90
16838;DHT22;19510;54.486;9.046;2023-09-07T15:19:05;28.40;99.90
16838;DHT22;19510;54.486;9.046;2023-09-07T15:21:33;28.50;99.90
16838;DHT22;19510;54.486;9.046;2023-09-07T15:23:58;28.50;99.90
16838;DHT22;19510;54.486;9.046;2023-09-07T15:26:24;28.40;99.90
16838;DHT22;19510;54.486;9.046;2023-09-07T15:28:50;28.20;99.90